sensor_id;sensor_type;location;lat;lon;timestamp;temperature;humidity
3416;DHT22;1721;51.238;9.562;2022-10-01T00:01:45;11.30;91.50
3416;DHT22;1721;51.238;9.562;2022-10-01T00:04:10;11.10;91.50
3416;DHT22;1721;51.238;9.562;2022-10-01T00:06:35;11.00;91.80
3416;DHT22;1721;51.238;9.562;2022-10-01T00:09:01;11.10;91.90
3416;DHT22;1721;51.238;9.562;2022-10-01T00:11:26;11.20;91.50
3416;DHT22;1721;51.238;9.562;2022-10-01T00:13:52;11.10;91.80
3416;DHT22;1721;51.238;9.562;2022-10-01T00:16:20;11.20;91.80
3416;DHT22;1721;51.238;9.562;2022-10-01T00:18:46;11.20;91.80
3416;DHT22;1721;51.238;9.562;2022-10-01T00:21:13;11.20;91.80
3416;DHT22;1721;51.238;9.562;2022-10-01T00:23:38;11.30;91.70
3416;DHT22;1721;51.238;9.562;2022-10-01T00:26:10;11.30;91.50
3416;DHT22;1721;51.238;9.562;2022-10-01T00:28:36;11.30;91.40
3416;DHT22;1721;51.238;9.562;2022-10-01T00:31:02;11.20;91.50
3416;DHT22;1721;51.238;9.562;2022-10-01T00:33:28;11.20;91.30
3416;DHT22;1721;51.238;9.562;2022-10-01T00:35:53;11.10;91.40
3416;DHT22;1721;51.238;9.562;2022-10-01T00:38:19;11.20;91.40
3416;DHT22;1721;51.238;9.562;2022-10-01T00:40:44;11.20;91.30
3416;DHT22;1721;51.238;9.562;2022-10-01T00:43:19;11.10;91.30
3416;DHT22;1721;51.238;9.562;2022-10-01T00:45:45;11.20;91.10
3416;DHT22;1721;51.238;9.562;2022-10-01T00:48:10;11.20;91.20
3416;DHT22;1721;51.238;9.562;2022-10-01T00:50:36;11.30;91.00
3416;DHT22;1721;51.238;9.562;2022-10-01T00:53:05;11.30;90.90
3416;DHT22;1721;51.238;9.562;2022-10-01T00:55:35;11.30;91.00
3416;DHT22;1721;51.238;9.562;2022-10-01T00:58:02;11.40;90.90
3416;DHT22;1721;51.238;9.562;2022-10-01T01:00:28;11.40;91.00
3416;DHT22;1721;51.238;9.562;2022-10-01T01:02:53;11.50;90.90
3416;DHT22;1721;51.238;9.562;2022-10-01T01:05:20;11.50;90.60
3416;DHT22;1721;51.238;9.562;2022-10-01T01:07:47;11.60;90.50
3416;DHT22;1721;51.238;9.562;2022-10-01T01:10:15;11.60;90.40
3416;DHT22;1721;51.238;9.562;2022-10-01T01:12:45;11.50;90.30
3416;DHT22;1721;51.238;9.562;2022-10-01T01:30:37;11.50;90.10
3416;DHT22;1721;51.238;9.562;2022-10-01T01:33:09;11.40;90.00
3416;DHT22;1721;51.238;9.562;2022-10-01T01:35:40;11.30;90.10
3416;DHT22;1721;51.238;9.562;2022-10-01T01:38:09;11.30;90.30
3416;DHT22;1721;51.238;9.562;2022-10-01T01:40:36;11.30;90.10
3416;DHT22;1721;51.238;9.562;2022-10-01T01:43:03;11.30;90.20
3416;DHT22;1721;51.238;9.562;2022-10-01T01:45:29;11.20;90.20
3416;DHT22;1721;51.238;9.562;2022-10-01T01:47:56;11.10;90.20
3416;DHT22;1721;51.238;9.562;2022-10-01T01:50:22;11.10;90.30
3416;DHT22;1721;51.238;9.562;2022-10-01T01:52:50;11.10;90.30
3416;DHT22;1721;51.238;9.562;2022-10-01T01:55:17;11.10;90.30
3416;DHT22;1721;51.238;9.562;2022-10-01T01:57:43;11.10;90.30
3416;DHT22;1721;51.238;9.562;2022-10-01T02:00:09;11.20;90.30
3416;DHT22;1721;51.238;9.562;2022-10-01T02:02:36;11.20;90.20
3416;DHT22;1721;51.238;9.562;2022-10-01T02:05:10;11.20;90.30
3416;DHT22;1721;51.238;9.562;2022-10-01T02:15:19;11.40;90.00
3416;DHT22;1721;51.238;9.562;2022-10-01T02:17:48;11.40;90.10
3416;DHT22;1721;51.238;9.562;2022-10-01T02:20:20;11.50;90.10
3416;DHT22;1721;51.238;9.562;2022-10-01T02:22:49;11.50;90.10
3416;DHT22;1721;51.238;9.562;2022-10-01T02:25:16;11.40;89.80
3416;DHT22;1721;51.238;9.562;2022-10-01T02:27:47;11.50;90.00
3416;DHT22;1721;51.238;9.562;2022-10-01T02:30:15;11.40;89.90
3416;DHT22;1721;51.238;9.562;2022-10-01T02:32:41;11.40;90.00
3416;DHT22;1721;51.238;9.562;2022-10-01T02:35:09;11.40;90.20
3416;DHT22;1721;51.238;9.562;2022-10-01T02:37:35;11.30;90.30
3416;DHT22;1721;51.238;9.562;2022-10-01T02:40:02;11.30;90.30
3416;DHT22;1721;51.238;9.562;2022-10-01T02:42:29;11.40;90.30
3416;DHT22;1721;51.238;9.562;2022-10-01T02:44:55;11.40;90.10
3416;DHT22;1721;51.238;9.562;2022-10-01T02:47:31;11.60;90.00
3416;DHT22;1721;51.238;9.562;2022-10-01T02:49:59;11.70;90.10
3416;DHT22;1721;51.238;9.562;2022-10-01T02:52:31;11.60;89.90
3416;DHT22;1721;51.238;9.562;2022-10-01T02:55:00;11.60;89.90
3416;DHT22;1721;51.238;9.562;2022-10-01T02:57:28;11.60;89.80
3416;DHT22;1721;51.238;9.562;2022-10-01T02:59:54;11.50;89.80
3416;DHT22;1721;51.238;9.562;2022-10-01T03:02:22;11.60;90.20
3416;DHT22;1721;51.238;9.562;2022-10-01T03:04:48;11.60;90.00
3416;DHT22;1721;51.238;9.562;2022-10-01T03:07:14;11.70;89.90
3416;DHT22;1721;51.238;9.562;2022-10-01T03:09:40;11.70;89.60
3416;DHT22;1721;51.238;9.562;2022-10-01T03:12:05;11.70;89.70
3416;DHT22;1721;51.238;9.562;2022-10-01T03:14:31;11.70;89.80
3416;DHT22;1721;51.238;9.562;2022-10-01T03:16:57;11.70;89.80
3416;DHT22;1721;51.238;9.562;2022-10-01T03:19:22;11.70;89.70
3416;DHT22;1721;51.238;9.562;2022-10-01T03:21:48;11.60;89.80
3416;DHT22;1721;51.238;9.562;2022-10-01T03:24:13;11.60;90.10
3416;DHT22;1721;51.238;9.562;2022-10-01T03:26:39;11.50;90.10
3416;DHT22;1721;51.238;9.562;2022-10-01T03:29:04;11.60;90.10
3416;DHT22;1721;51.238;9.562;2022-10-01T03:31:30;11.70;90.10
3416;DHT22;1721;51.238;9.562;2022-10-01T03:33:56;11.70;90.10
3416;DHT22;1721;51.238;9.562;2022-10-01T03:36:25;11.60;90.30
3416;DHT22;1721;51.238;9.562;2022-10-01T03:38:51;11.70;90.10
3416;DHT22;1721;51.238;9.562;2022-10-01T03:41:16;11.50;90.40
3416;DHT22;1721;51.238;9.562;2022-10-01T03:43:42;11.40;90.50
3416;DHT22;1721;51.238;9.562;2022-10-01T03:46:07;11.40;90.50
3416;DHT22;1721;51.238;9.562;2022-10-01T03:48:32;11.40;90.80
3416;DHT22;1721;51.238;9.562;2022-10-01T03:50:58;11.50;90.80
3416;DHT22;1721;51.238;9.562;2022-10-01T03:53:24;11.50;90.60
3416;DHT22;1721;51.238;9.562;2022-10-01T03:55:51;11.50;90.70
3416;DHT22;1721;51.238;9.562;2022-10-01T03:58:17;11.40;90.80
3416;DHT22;1721;51.238;9.562;2022-10-01T04:00:44;11.40;91.00
3416;DHT22;1721;51.238;9.562;2022-10-01T04:03:10;11.40;91.10
3416;DHT22;1721;51.238;9.562;2022-10-01T04:05:35;11.50;91.00
3416;DHT22;1721;51.238;9.562;2022-10-01T04:08:00;11.70;90.90
3416;DHT22;1721;51.238;9.562;2022-10-01T04:10:26;11.70;90.90
3416;DHT22;1721;51.238;9.562;2022-10-01T04:12:51;11.80;90.70
3416;DHT22;1721;51.238;9.562;2022-10-01T04:15:19;11.70;90.90
3416;DHT22;1721;51.238;9.562;2022-10-01T04:17:44;11.80;90.80
3416;DHT22;1721;51.238;9.562;2022-10-01T04:20:10;11.70;90.90
3416;DHT22;1721;51.238;9.562;2022-10-01T04:22:37;11.90;91.00
3416;DHT22;1721;51.238;9.562;2022-10-01T04:25:05;11.80;91.30
3416;DHT22;1721;51.238;9.562;2022-10-01T04:27:30;11.90;91.50
3416;DHT22;1721;51.238;9.562;2022-10-01T04:29:56;12.00;91.70
3416;DHT22;1721;51.238;9.562;2022-10-01T04:32:21;12.00;92.30
3416;DHT22;1721;51.238;9.562;2022-10-01T04:34:46;11.80;92.60
3416;DHT22;1721;51.238;9.562;2022-10-01T04:37:18;11.70;93.10
3416;DHT22;1721;51.238;9.562;2022-10-01T04:39:44;11.60;93.50
3416;DHT22;1721;51.238;9.562;2022-10-01T04:42:09;11.50;94.10
3416;DHT22;1721;51.238;9.562;2022-10-01T04:44:36;11.50;94.50
3416;DHT22;1721;51.238;9.562;2022-10-01T04:47:02;11.50;94.70
3416;DHT22;1721;51.238;9.562;2022-10-01T04:49:27;11.40;94.60
3416;DHT22;1721;51.238;9.562;2022-10-01T04:51:53;11.40;95.00
3416;DHT22;1721;51.238;9.562;2022-10-01T04:54:18;11.40;95.20
3416;DHT22;1721;51.238;9.562;2022-10-01T04:56:44;11.30;96.00
3416;DHT22;1721;51.238;9.562;2022-10-01T04:59:09;11.30;96.00
3416;DHT22;1721;51.238;9.562;2022-10-01T05:01:35;11.30;96.20
3416;DHT22;1721;51.238;9.562;2022-10-01T05:04:00;11.10;96.40
3416;DHT22;1721;51.238;9.562;2022-10-01T05:06:25;10.90;96.90
3416;DHT22;1721;51.238;9.562;2022-10-01T05:08:51;11.00;97.20
3416;DHT22;1721;51.238;9.562;2022-10-01T05:11:17;11.00;97.40
3416;DHT22;1721;51.238;9.562;2022-10-01T05:13:42;11.00;97.40
3416;DHT22;1721;51.238;9.562;2022-10-01T05:16:08;10.90;97.40
3416;DHT22;1721;51.238;9.562;2022-10-01T05:18:33;10.90;97.60
3416;DHT22;1721;51.238;9.562;2022-10-01T05:21:03;11.00;97.70
3416;DHT22;1721;51.238;9.562;2022-10-01T05:23:28;11.00;97.20
3416;DHT22;1721;51.238;9.562;2022-10-01T05:25:53;11.00;97.50
3416;DHT22;1721;51.238;9.562;2022-10-01T05:28:19;10.90;97.50
3416;DHT22;1721;51.238;9.562;2022-10-01T05:30:44;10.80;97.80
3416;DHT22;1721;51.238;9.562;2022-10-01T05:33:10;11.00;97.90
3416;DHT22;1721;51.238;9.562;2022-10-01T05:35:35;11.00;98.00
3416;DHT22;1721;51.238;9.562;2022-10-01T05:38:01;11.00;97.90
3416;DHT22;1721;51.238;9.562;2022-10-01T05:40:29;10.90;98.00
3416;DHT22;1721;51.238;9.562;2022-10-01T05:42:55;11.00;97.90
3416;DHT22;1721;51.238;9.562;2022-10-01T05:45:21;10.80;98.00
3416;DHT22;1721;51.238;9.562;2022-10-01T05:47:47;10.80;98.50
3416;DHT22;1721;51.238;9.562;2022-10-01T05:50:14;10.90;98.50
3416;DHT22;1721;51.238;9.562;2022-10-01T05:52:46;10.90;98.30
3416;DHT22;1721;51.238;9.562;2022-10-01T05:55:12;11.00;98.30
3416;DHT22;1721;51.238;9.562;2022-10-01T05:57:37;10.90;98.10
3416;DHT22;1721;51.238;9.562;2022-10-01T06:00:03;10.80;98.20
3416;DHT22;1721;51.238;9.562;2022-10-01T06:02:28;10.80;98.30
3416;DHT22;1721;51.238;9.562;2022-10-01T06:04:54;10.70;98.50
3416;DHT22;1721;51.238;9.562;2022-10-01T06:07:19;10.60;98.30
3416;DHT22;1721;51.238;9.562;2022-10-01T06:09:45;10.60;98.60
3416;DHT22;1721;51.238;9.562;2022-10-01T06:12:10;10.70;98.60
3416;DHT22;1721;51.238;9.562;2022-10-01T06:14:36;10.80;98.60
3416;DHT22;1721;51.238;9.562;2022-10-01T06:17:01;10.70;98.50
3416;DHT22;1721;51.238;9.562;2022-10-01T06:19:27;10.70;99.00
3416;DHT22;1721;51.238;9.562;2022-10-01T06:21:52;10.70;98.70
3416;DHT22;1721;51.238;9.562;2022-10-01T06:24:18;10.70;98.90
3416;DHT22;1721;51.238;9.562;2022-10-01T06:26:43;10.70;98.60
3416;DHT22;1721;51.238;9.562;2022-10-01T06:29:09;10.70;98.90
3416;DHT22;1721;51.238;9.562;2022-10-01T06:31:34;10.70;99.10
3416;DHT22;1721;51.238;9.562;2022-10-01T06:34:00;10.60;99.10
3416;DHT22;1721;51.238;9.562;2022-10-01T06:36:25;10.60;99.10
3416;DHT22;1721;51.238;9.562;2022-10-01T06:38:51;10.70;99.00
3416;DHT22;1721;51.238;9.562;2022-10-01T06:41:16;10.70;98.90
3416;DHT22;1721;51.238;9.562;2022-10-01T06:43:42;10.80;99.10
3416;DHT22;1721;51.238;9.562;2022-10-01T06:46:08;10.70;99.10
3416;DHT22;1721;51.238;9.562;2022-10-01T06:48:34;10.80;99.40
3416;DHT22;1721;51.238;9.562;2022-10-01T06:51:00;10.70;99.40
3416;DHT22;1721;51.238;9.562;2022-10-01T06:53:26;10.70;99.40
3416;DHT22;1721;51.238;9.562;2022-10-01T06:55:52;10.80;99.30
3416;DHT22;1721;51.238;9.562;2022-10-01T06:58:18;10.80;99.30
3416;DHT22;1721;51.238;9.562;2022-10-01T07:00:45;10.80;99.80
3416;DHT22;1721;51.238;9.562;2022-10-01T07:03:15;10.90;99.60
3416;DHT22;1721;51.238;9.562;2022-10-01T07:05:41;10.80;99.50
3416;DHT22;1721;51.238;9.562;2022-10-01T07:08:07;10.90;99.60
3416;DHT22;1721;51.238;9.562;2022-10-01T07:10:33;10.90;99.40
3416;DHT22;1721;51.238;9.562;2022-10-01T07:13:12;10.90;99.60
3416;DHT22;1721;51.238;9.562;2022-10-01T07:15:38;10.90;99.80
3416;DHT22;1721;51.238;9.562;2022-10-01T07:18:04;10.90;99.70
3416;DHT22;1721;51.238;9.562;2022-10-01T07:20:29;10.90;99.80
3416;DHT22;1721;51.238;9.562;2022-10-01T07:22:59;10.90;99.80
3416;DHT22;1721;51.238;9.562;2022-10-01T07:25:25;10.90;99.80
3416;DHT22;1721;51.238;9.562;2022-10-01T07:27:58;10.90;99.70
3416;DHT22;1721;51.238;9.562;2022-10-01T07:30:24;10.90;99.80
3416;DHT22;1721;51.238;9.562;2022-10-01T07:32:50;10.90;99.90
3416;DHT22;1721;51.238;9.562;2022-10-01T07:35:15;11.00;99.70
3416;DHT22;1721;51.238;9.562;2022-10-01T07:37:41;11.00;99.90
3416;DHT22;1721;51.238;9.562;2022-10-01T07:40:06;11.00;99.80
3416;DHT22;1721;51.238;9.562;2022-10-01T07:42:33;11.10;99.50
3416;DHT22;1721;51.238;9.562;2022-10-01T07:44:58;11.20;99.60
3416;DHT22;1721;51.238;9.562;2022-10-01T07:47:24;11.00;99.50
3416;DHT22;1721;51.238;9.562;2022-10-01T07:49:49;11.00;99.50
3416;DHT22;1721;51.238;9.562;2022-10-01T07:52:15;11.10;99.70
3416;DHT22;1721;51.238;9.562;2022-10-01T07:54:40;11.20;99.60
3416;DHT22;1721;51.238;9.562;2022-10-01T07:57:05;11.30;99.40
3416;DHT22;1721;51.238;9.562;2022-10-01T07:59:31;11.40;99.40
3416;DHT22;1721;51.238;9.562;2022-10-01T08:01:57;11.50;99.10
3416;DHT22;1721;51.238;9.562;2022-10-01T08:04:23;11.40;98.60
3416;DHT22;1721;51.238;9.562;2022-10-01T08:07:08;11.40;98.90
3416;DHT22;1721;51.238;9.562;2022-10-01T08:09:33;11.40;98.90
3416;DHT22;1721;51.238;9.562;2022-10-01T08:11:59;11.30;98.90
3416;DHT22;1721;51.238;9.562;2022-10-01T08:14:24;11.20;99.00
3416;DHT22;1721;51.238;9.562;2022-10-01T08:16:50;11.10;99.20
3416;DHT22;1721;51.238;9.562;2022-10-01T08:19:16;11.30;99.30
3416;DHT22;1721;51.238;9.562;2022-10-01T08:21:41;11.30;99.20
3416;DHT22;1721;51.238;9.562;2022-10-01T08:24:07;11.40;99.10
3416;DHT22;1721;51.238;9.562;2022-10-01T08:26:33;11.40;98.90
3416;DHT22;1721;51.238;9.562;2022-10-01T08:28:59;11.50;99.10
3416;DHT22;1721;51.238;9.562;2022-10-01T08:31:24;11.50;99.10
3416;DHT22;1721;51.238;9.562;2022-10-01T08:33:50;11.60;98.90
3416;DHT22;1721;51.238;9.562;2022-10-01T08:36:16;11.60;98.70
3416;DHT22;1721;51.238;9.562;2022-10-01T08:38:45;11.50;98.80
3416;DHT22;1721;51.238;9.562;2022-10-01T08:43:46;11.40;98.80
3416;DHT22;1721;51.238;9.562;2022-10-01T08:46:12;11.40;99.00
3416;DHT22;1721;51.238;9.562;2022-10-01T08:48:42;11.40;99.10
3416;DHT22;1721;51.238;9.562;2022-10-01T08:51:12;11.60;99.20
3416;DHT22;1721;51.238;9.562;2022-10-01T08:53:44;11.60;98.90
3416;DHT22;1721;51.238;9.562;2022-10-01T08:56:17;11.40;99.10
3416;DHT22;1721;51.238;9.562;2022-10-01T08:58:45;11.40;99.20
3416;DHT22;1721;51.238;9.562;2022-10-01T09:01:13;11.40;99.50
3416;DHT22;1721;51.238;9.562;2022-10-01T09:03:38;11.40;99.30
3416;DHT22;1721;51.238;9.562;2022-10-01T09:11:15;11.40;99.70
3416;DHT22;1721;51.238;9.562;2022-10-01T09:13:50;11.50;99.90
3416;DHT22;1721;51.238;9.562;2022-10-01T09:16:23;11.50;99.60
3416;DHT22;1721;51.238;9.562;2022-10-01T09:19:06;11.70;99.80
3416;DHT22;1721;51.238;9.562;2022-10-01T09:24:13;11.80;99.60
3416;DHT22;1721;51.238;9.562;2022-10-01T09:26:42;11.90;99.50
3416;DHT22;1721;51.238;9.562;2022-10-01T09:29:12;11.90;99.20
3416;DHT22;1721;51.238;9.562;2022-10-01T09:31:39;11.90;99.30
3416;DHT22;1721;51.238;9.562;2022-10-01T09:34:13;11.90;99.30
3416;DHT22;1721;51.238;9.562;2022-10-01T09:39:14;12.10;99.30
3416;DHT22;1721;51.238;9.562;2022-10-01T09:41:41;12.20;98.80
3416;DHT22;1721;51.238;9.562;2022-10-01T09:44:14;12.10;98.50
3416;DHT22;1721;51.238;9.562;2022-10-01T09:46:40;12.20;99.00
3416;DHT22;1721;51.238;9.562;2022-10-01T09:49:08;12.10;98.70
3416;DHT22;1721;51.238;9.562;2022-10-01T09:51:43;12.30;98.90
3416;DHT22;1721;51.238;9.562;2022-10-01T09:56:54;12.30;98.60
3416;DHT22;1721;51.238;9.562;2022-10-01T09:59:21;12.30;98.80
3416;DHT22;1721;51.238;9.562;2022-10-01T10:01:49;12.20;98.80
3416;DHT22;1721;51.238;9.562;2022-10-01T10:04:19;12.20;98.80
3416;DHT22;1721;51.238;9.562;2022-10-01T10:06:45;12.20;99.00
3416;DHT22;1721;51.238;9.562;2022-10-01T10:09:18;12.20;99.10
3416;DHT22;1721;51.238;9.562;2022-10-01T10:11:44;12.10;99.10
3416;DHT22;1721;51.238;9.562;2022-10-01T10:14:13;12.20;99.30
3416;DHT22;1721;51.238;9.562;2022-10-01T10:16:40;12.40;99.10
3416;DHT22;1721;51.238;9.562;2022-10-01T10:19:20;12.60;98.80
3416;DHT22;1721;51.238;9.562;2022-10-01T10:21:51;12.60;98.50
3416;DHT22;1721;51.238;9.562;2022-10-01T10:24:22;12.50;98.30
3416;DHT22;1721;51.238;9.562;2022-10-01T10:26:55;12.40;98.60
3416;DHT22;1721;51.238;9.562;2022-10-01T10:29:34;12.40;98.80
3416;DHT22;1721;51.238;9.562;2022-10-01T10:32:02;12.50;98.80
3416;DHT22;1721;51.238;9.562;2022-10-01T10:34:31;12.60;98.80
3416;DHT22;1721;51.238;9.562;2022-10-01T10:36:58;12.70;98.80
3416;DHT22;1721;51.238;9.562;2022-10-01T10:39:27;12.70;99.00
3416;DHT22;1721;51.238;9.562;2022-10-01T10:41:55;12.80;99.00
3416;DHT22;1721;51.238;9.562;2022-10-01T10:44:21;12.90;98.80
3416;DHT22;1721;51.238;9.562;2022-10-01T10:46:49;12.90;98.80
3416;DHT22;1721;51.238;9.562;2022-10-01T10:51:48;13.00;98.70
3416;DHT22;1721;51.238;9.562;2022-10-01T10:54:22;12.90;98.90
3416;DHT22;1721;51.238;9.562;2022-10-01T10:56:52;12.80;99.00
3416;DHT22;1721;51.238;9.562;2022-10-01T10:59:17;12.90;99.40
3416;DHT22;1721;51.238;9.562;2022-10-01T11:01:43;12.80;99.40
3416;DHT22;1721;51.238;9.562;2022-10-01T11:04:17;12.80;99.50
3416;DHT22;1721;51.238;9.562;2022-10-01T11:06:52;12.90;99.40
3416;DHT22;1721;51.238;9.562;2022-10-01T11:09:17;12.80;99.30
3416;DHT22;1721;51.238;9.562;2022-10-01T11:12:47;12.90;99.70
3416;DHT22;1721;51.238;9.562;2022-10-01T11:14:50;13.00;99.50
3416;DHT22;1721;51.238;9.562;2022-10-01T11:27:57;13.40;99.60
3416;DHT22;1721;51.238;9.562;2022-10-01T11:30:33;13.70;99.30
3416;DHT22;1721;51.238;9.562;2022-10-01T11:33:21;13.80;98.70
3416;DHT22;1721;51.238;9.562;2022-10-01T11:36:08;14.00;98.80
3416;DHT22;1721;51.238;9.562;2022-10-01T11:43:42;14.00;98.20
3416;DHT22;1721;51.238;9.562;2022-10-01T11:46:09;14.00;98.40
3416;DHT22;1721;51.238;9.562;2022-10-01T11:48:41;14.00;98.40
3416;DHT22;1721;51.238;9.562;2022-10-01T11:51:12;14.20;98.30
3416;DHT22;1721;51.238;9.562;2022-10-01T11:53:43;14.20;98.00
3416;DHT22;1721;51.238;9.562;2022-10-01T11:56:12;14.20;98.00
3416;DHT22;1721;51.238;9.562;2022-10-01T12:01:46;14.10;97.90
3416;DHT22;1721;51.238;9.562;2022-10-01T12:06:51;14.00;98.20
3416;DHT22;1721;51.238;9.562;2022-10-01T12:09:23;14.00;98.10
3416;DHT22;1721;51.238;9.562;2022-10-01T12:11:58;13.90;98.40
3416;DHT22;1721;51.238;9.562;2022-10-01T12:14:26;13.90;98.40
3416;DHT22;1721;51.238;9.562;2022-10-01T12:16:56;14.00;98.30
3416;DHT22;1721;51.238;9.562;2022-10-01T12:19:33;14.10;98.50
3416;DHT22;1721;51.238;9.562;2022-10-01T12:22:04;14.10;97.90
3416;DHT22;1721;51.238;9.562;2022-10-01T12:24:35;14.00;98.40
3416;DHT22;1721;51.238;9.562;2022-10-01T12:29:47;14.10;98.30
3416;DHT22;1721;51.238;9.562;2022-10-01T12:35:08;14.10;98.30
3416;DHT22;1721;51.238;9.562;2022-10-01T12:37:41;14.20;98.20
3416;DHT22;1721;51.238;9.562;2022-10-01T12:40:18;14.10;98.40
3416;DHT22;1721;51.238;9.562;2022-10-01T12:48:19;14.10;99.40
3416;DHT22;1721;51.238;9.562;2022-10-01T12:50:51;14.10;99.20
3416;DHT22;1721;51.238;9.562;2022-10-01T12:55:56;14.50;99.20
3416;DHT22;1721;51.238;9.562;2022-10-01T13:00:58;14.60;99.30
3416;DHT22;1721;51.238;9.562;2022-10-01T13:03:31;14.90;99.00
3416;DHT22;1721;51.238;9.562;2022-10-01T13:06:17;15.10;98.80
3416;DHT22;1721;51.238;9.562;2022-10-01T13:13:37;14.80;98.40
3416;DHT22;1721;51.238;9.562;2022-10-01T13:16:13;14.70;98.80
3416;DHT22;1721;51.238;9.562;2022-10-01T13:18:47;14.70;99.10
3416;DHT22;1721;51.238;9.562;2022-10-01T13:21:17;14.70;99.00
3416;DHT22;1721;51.238;9.562;2022-10-01T13:23:49;14.80;99.00
3416;DHT22;1721;51.238;9.562;2022-10-01T13:26:37;14.90;99.00
3416;DHT22;1721;51.238;9.562;2022-10-01T13:29:23;14.80;98.90
3416;DHT22;1721;51.238;9.562;2022-10-01T13:31:54;15.10;98.90
3416;DHT22;1721;51.238;9.562;2022-10-01T13:36:52;15.00;98.60
3416;DHT22;1721;51.238;9.562;2022-10-01T13:39:21;15.10;99.10
3416;DHT22;1721;51.238;9.562;2022-10-01T13:41:47;15.20;98.70
3416;DHT22;1721;51.238;9.562;2022-10-01T13:44:35;15.20;98.40
3416;DHT22;1721;51.238;9.562;2022-10-01T13:47:01;15.10;98.40
3416;DHT22;1721;51.238;9.562;2022-10-01T13:49:28;15.10;98.40
3416;DHT22;1721;51.238;9.562;2022-10-01T13:51:54;15.10;98.80
3416;DHT22;1721;51.238;9.562;2022-10-01T13:54:22;14.90;98.90
3416;DHT22;1721;51.238;9.562;2022-10-01T13:56:49;14.80;99.10
3416;DHT22;1721;51.238;9.562;2022-10-01T13:59:31;14.80;99.60
3416;DHT22;1721;51.238;9.562;2022-10-01T14:01:57;14.80;99.60
3416;DHT22;1721;51.238;9.562;2022-10-01T14:06:59;15.10;99.60
3416;DHT22;1721;51.238;9.562;2022-10-01T14:09:34;15.30;99.80
3416;DHT22;1721;51.238;9.562;2022-10-01T14:12:02;15.50;99.50
3416;DHT22;1721;51.238;9.562;2022-10-01T14:14:56;15.60;99.30
3416;DHT22;1721;51.238;9.562;2022-10-01T14:17:40;15.80;99.30
3416;DHT22;1721;51.238;9.562;2022-10-01T14:20:07;15.90;98.70
3416;DHT22;1721;51.238;9.562;2022-10-01T14:22:43;16.00;98.80
3416;DHT22;1721;51.238;9.562;2022-10-01T14:30:12;15.90;98.60
3416;DHT22;1721;51.238;9.562;2022-10-01T14:35:20;16.00;98.20
3416;DHT22;1721;51.238;9.562;2022-10-01T14:37:49;16.00;98.00
3416;DHT22;1721;51.238;9.562;2022-10-01T14:40:19;16.00;98.40
3416;DHT22;1721;51.238;9.562;2022-10-01T14:42:56;15.90;99.20
3416;DHT22;1721;51.238;9.562;2022-10-01T14:45:21;15.40;98.30
3416;DHT22;1721;51.238;9.562;2022-10-01T14:47:46;14.80;98.10
3416;DHT22;1721;51.238;9.562;2022-10-01T14:50:18;14.60;98.10
3416;DHT22;1721;51.238;9.562;2022-10-01T14:52:44;14.40;97.60
3416;DHT22;1721;51.238;9.562;2022-10-01T14:55:11;14.40;97.20
3416;DHT22;1721;51.238;9.562;2022-10-01T14:57:38;14.20;96.90
3416;DHT22;1721;51.238;9.562;2022-10-01T15:00:06;14.10;97.20
3416;DHT22;1721;51.238;9.562;2022-10-01T15:02:42;14.10;97.50
3416;DHT22;1721;51.238;9.562;2022-10-01T15:05:13;14.10;97.40
3416;DHT22;1721;51.238;9.562;2022-10-01T15:07:39;14.20;97.50
3416;DHT22;1721;51.238;9.562;2022-10-01T15:10:05;14.50;97.40
3416;DHT22;1721;51.238;9.562;2022-10-01T15:12:31;14.70;97.20
3416;DHT22;1721;51.238;9.562;2022-10-01T15:14:56;15.00;97.00
3416;DHT22;1721;51.238;9.562;2022-10-01T15:17:22;15.00;97.30
3416;DHT22;1721;51.238;9.562;2022-10-01T15:19:49;15.10;97.20
3416;DHT22;1721;51.238;9.562;2022-10-01T15:22:18;15.00;96.90
3416;DHT22;1721;51.238;9.562;2022-10-01T15:24:45;15.00;96.60
3416;DHT22;1721;51.238;9.562;2022-10-01T15:27:13;14.90;96.60
3416;DHT22;1721;51.238;9.562;2022-10-01T15:29:40;14.90;96.70
3416;DHT22;1721;51.238;9.562;2022-10-01T15:32:06;14.90;96.70
3416;DHT22;1721;51.238;9.562;2022-10-01T15:34:32;15.00;96.60
3416;DHT22;1721;51.238;9.562;2022-10-01T15:36:58;14.90;96.50
3416;DHT22;1721;51.238;9.562;2022-10-01T15:39:29;14.90;96.70
3416;DHT22;1721;51.238;9.562;2022-10-01T15:41:55;14.90;96.70
3416;DHT22;1721;51.238;9.562;2022-10-01T15:47:26;14.80;96.70
3416;DHT22;1721;51.238;9.562;2022-10-01T15:52:44;14.60;97.10
3416;DHT22;1721;51.238;9.562;2022-10-01T16:03:28;14.40;97.30
3416;DHT22;1721;51.238;9.562;2022-10-01T16:05:55;14.30;97.50
3416;DHT22;1721;51.238;9.562;2022-10-01T16:08:22;14.30;97.60
3416;DHT22;1721;51.238;9.562;2022-10-01T16:11:06;14.40;97.50
3416;DHT22;1721;51.238;9.562;2022-10-01T16:16:30;14.40;97.90
3416;DHT22;1721;51.238;9.562;2022-10-01T16:18:53;14.30;97.70
3416;DHT22;1721;51.238;9.562;2022-10-01T16:21:20;14.30;97.60
3416;DHT22;1721;51.238;9.562;2022-10-01T16:23:47;14.30;97.90
3416;DHT22;1721;51.238;9.562;2022-10-01T16:29:39;14.40;97.80
3416;DHT22;1721;51.238;9.562;2022-10-01T16:31:40;14.30;97.80
3416;DHT22;1721;51.238;9.562;2022-10-01T16:34:11;14.40;97.90
3416;DHT22;1721;51.238;9.562;2022-10-01T16:36:36;14.40;97.60
3416;DHT22;1721;51.238;9.562;2022-10-01T16:39:02;14.20;97.00
3416;DHT22;1721;51.238;9.562;2022-10-01T16:41:27;14.00;97.20
3416;DHT22;1721;51.238;9.562;2022-10-01T16:43:53;14.00;97.40
3416;DHT22;1721;51.238;9.562;2022-10-01T16:46:20;13.90;97.30
3416;DHT22;1721;51.238;9.562;2022-10-01T16:48:46;13.90;97.30
3416;DHT22;1721;51.238;9.562;2022-10-01T16:51:13;13.90;97.20
3416;DHT22;1721;51.238;9.562;2022-10-01T16:53:38;13.80;97.10
3416;DHT22;1721;51.238;9.562;2022-10-01T16:56:07;13.70;97.30
3416;DHT22;1721;51.238;9.562;2022-10-01T16:58:32;13.70;97.30
3416;DHT22;1721;51.238;9.562;2022-10-01T17:00:58;13.60;97.30
3416;DHT22;1721;51.238;9.562;2022-10-01T17:03:23;13.50;97.50
3416;DHT22;1721;51.238;9.562;2022-10-01T17:05:49;13.60;97.50
3416;DHT22;1721;51.238;9.562;2022-10-01T17:08:14;13.50;97.50
3416;DHT22;1721;51.238;9.562;2022-10-01T17:10:42;13.40;97.60
3416;DHT22;1721;51.238;9.562;2022-10-01T17:13:08;13.50;97.80
3416;DHT22;1721;51.238;9.562;2022-10-01T17:15:34;13.50;97.70
3416;DHT22;1721;51.238;9.562;2022-10-01T17:17:59;13.40;97.70
3416;DHT22;1721;51.238;9.562;2022-10-01T17:20:26;13.40;97.70
3416;DHT22;1721;51.238;9.562;2022-10-01T17:22:52;13.30;97.70
3416;DHT22;1721;51.238;9.562;2022-10-01T17:25:19;13.20;97.70
3416;DHT22;1721;51.238;9.562;2022-10-01T17:27:45;13.20;97.70
3416;DHT22;1721;51.238;9.562;2022-10-01T17:30:11;13.10;97.70
3416;DHT22;1721;51.238;9.562;2022-10-01T17:32:36;13.00;97.80
3416;DHT22;1721;51.238;9.562;2022-10-01T17:35:06;13.00;97.90
3416;DHT22;1721;51.238;9.562;2022-10-01T17:37:32;13.00;97.90
3416;DHT22;1721;51.238;9.562;2022-10-01T17:39:58;13.00;97.70
3416;DHT22;1721;51.238;9.562;2022-10-01T17:42:24;12.90;97.80
3416;DHT22;1721;51.238;9.562;2022-10-01T17:44:49;13.00;97.80
3416;DHT22;1721;51.238;9.562;2022-10-01T17:47:15;13.00;98.00
3416;DHT22;1721;51.238;9.562;2022-10-01T17:49:41;13.00;97.60
3416;DHT22;1721;51.238;9.562;2022-10-01T17:52:08;12.90;97.70
3416;DHT22;1721;51.238;9.562;2022-10-01T17:54:36;13.00;97.60
3416;DHT22;1721;51.238;9.562;2022-10-01T17:57:02;13.00;97.40
3416;DHT22;1721;51.238;9.562;2022-10-01T17:59:27;12.90;97.30
3416;DHT22;1721;51.238;9.562;2022-10-01T18:01:54;12.70;97.50
3416;DHT22;1721;51.238;9.562;2022-10-01T18:04:20;12.70;97.60